BIISBGGH

Guest
Details From BIIS - Isafjordur
To BGGH - Nuuk
Flight Number -
Tags generated
Created
Modified
Stats Distance 775 nm / 1,436 km
Max Altitude 34,000 ft / 10,363 m
Waypoints 9
Social Downloads 2
Likes 0
Share VATSIM

Download

Looking for another format? Having issues loading an existing format? Contact us
Advertisement - Login to hide

Notes

Basic altitude profile: - Ascent Rate: 2500ft/min - Ascent Speed: 250kts - Cruise Altitude: 260ft - Cruise Speed: 360kts - Descent Rate: 1500ft/min - Descent Speed: 250kts Options: - Use NATs: yes - Use PACOTS: yes - Use low airways: yes - Use high airways: yes

Route

BIIS PA 6500N02500W GIMLI 5E72 DA W47 ASVID BGGH

ID Type Via Altitude (ft/m) Position (lat/lon) Dist (leg/tot) Name
O BIIS APT - 0 / 0 66.05810 / -23.13520 - / 0 nm Isafjordur
PA NDB - 12,900 / 3,932 65.55583 / -23.95306 36 / 36 nm PATREKSFJORDUR NDB
6500N02500W LATLON - 28,100 / 8,565 65.00000 / -25.00000 42 / 78 nm
GIMLI FIX - 34,000 / 10,363 64.64000 / -26.97833 54 / 133 nm
DA NDB 5E72 (AWY-HI) 34,000 / 10,363 65.57056 / -37.20694 264 / 397 nm KULUSUK NDB
ASTAN FIX W47 (AWY-LO) 18,500 / 5,639 65.41778 / -39.99556 70 / 468 nm
SOBVI FIX W47 (AWY-LO) 18,500 / 5,639 65.18194 / -43.82889 97 / 565 nm
ASVID FIX W47 (AWY-LO) 18,100 / 5,517 64.63028 / -48.37889 120 / 685 nm
O BGGH APT - 0 / 0 64.19302 / -51.67645 89 / 775 nm Nuuk

Altitude Profile

Advertisement - Login to hide

Weather


0- 5 10 15 20 25 30 35+ Temperature / °C

Clouds and Precipitation
Forecast for 2018-10-23 06:00 UTC. Updated 6 hours ago

Ground ~20,000 ft ~40,000 ft Winds

BIIS

Details ICAO BIIS (IFJ)
Name Isafjordur
Region Iceland
Timezone Unknown
Stats Elevation 5 ft / 2 m (AMSL)
Location 66.058100° -23.135300°
Runways 1
Magnetic Variation 15.035° W

METAR

BIIS 230900Z 18003KT CAVOK M01/M05 Q1011

Decode

TAF

Not found

Departure Runways

ID Width Length Bearing (true/mag) Surface Threshold Overrun Markings Lighting
08 139 ft / 42 m 4,597 ft / 1,401 m 61.84° / 76.87° ASPHALT 0 ft / 0 m 0 ft / 0 m APP EDGE THRESHOLD
26 139 ft / 42 m 4,597 ft / 1,401 m 241.87° / 256.90° ASPHALT 0 ft / 0 m 0 ft / 0 m APP EDGE THRESHOLD

BGGH

Details ICAO BGGH (GOH)
Name Nuuk - Godthab
Region Greenland
Timezone America/Godthab (UTC-2.0)
Stats Elevation 283 ft / 86 m (AMSL)
Location 64.190900° -51.678100°
Runways 1
Magnetic Variation 26.711° W

METAR

BGGH 230850Z 06009KT 9999 SKC M08/M12 Q1010

Decode

TAF

Not found

Destination Runways

ID Width Length Bearing (true/mag) Surface Threshold Overrun Markings Lighting
05 98 ft / 30 m 3,120 ft / 951 m 19.56° / 46.27° CONCRETE 0 ft / 0 m 0 ft / 0 m APP EDGE THRESHOLD
23 98 ft / 30 m 3,120 ft / 951 m 199.56° / 226.27° CONCRETE 0 ft / 0 m 0 ft / 0 m APP EDGE THRESHOLD MALSR

Popular Alternatives